Strona główna
METAR-TAF:

METAR-TAF

Lotnisko :

Port lotniczy Ibiza

Ibiza, Hiszpania

Szerokość geograficzna: 38-52N, Długość geograficzna: 001-23E, wysokość: 7 m

Aktualna obserwacja pogody

Raport powstał 55 minut temu, godzina 18:30 UTC
Wiatr 8 kt od wschodnio-południowy wschód, zmienny między wschodnio-północny wschód i południowo-południowy wschód
Temperatura 24°C
Wilgotność 65%
Ciśnienie 1011 hPa
Widzialność 10 km lub więcej
Brak chmur poniżej 1500 m i brak chmur cumulonimbus

METAR: LEIB 251830Z 11008KT 070V150 CAVOK 24/17 Q1011 NOSIG

czas: 21:25 (19:25 UTC)

Prognoza

Raport powstał 5 godziny i 25 minut temu, godzina 14:00 UTC
Prognoza ważna od 25 godzina 15 UTC do 26 godzina 15 UTC
Wiatr 10 kt od wschód
Widzialność 10 km lub więcej
Mało chmury na wysokości 2000 ft
Przejściowo
od 26 godzina 09 UTC do 26 godzina 15 UTC
Wiatr 15 kt od wschodnio-północny wschód w porywach dochodzący do 25 kt

TAF: LEIB 251400Z 2515/2615 10010KT 9999 FEW020 TX28/2612Z TN21/2605Z TEMPO 2609/2615 07015G25KT

Obserwacja i prognoza pogody dla ponad 4000 lotnisk (raport METAR i TAF).

Dostępne stacje oznaczono żółtymi i czerwonymi punktami na mapie.

Najedź kursorem aby zobaczyć nazwę stacji.

Kliknij aby zobaczyć obserwacje i prognozy pogody.

Aby zmienić mapę: kliknij na zielony przycisk z czarnym krzyżykiem, aby powiększyć; na zielony przycisk z myślnikiem, aby pomniejszyć; na zielone strzałki, aby przejść do map sąsiednich.


METAR-TAF: